sensor_id;sensor_type;location;lat;lon;timestamp;pressure;altitude;pressure_sealevel;temperature;humidity
68179;BME280;54998;42.656;23.382;2022-10-16T00:01:12;95521.59;;;7.39;76.08
68179;BME280;54998;42.656;23.382;2022-10-16T00:03:39;95514.94;;;7.37;76.17
68179;BME280;54998;42.656;23.382;2022-10-16T00:06:05;95527.72;;;7.37;75.84
68179;BME280;54998;42.656;23.382;2022-10-16T00:08:31;95523.63;;;7.34;75.92
68179;BME280;54998;42.656;23.382;2022-10-16T00:11:02;95525.28;;;7.23;76.24
68179;BME280;54998;42.656;23.382;2022-10-16T00:13:29;95528.88;;;7.20;76.71
68179;BME280;54998;42.656;23.382;2022-10-16T00:15:56;95533.84;;;7.22;76.60
68179;BME280;54998;42.656;23.382;2022-10-16T00:18:21;95527.13;;;7.20;76.56
68179;BME280;54998;42.656;23.382;2022-10-16T00:20:47;95533.97;;;7.20;76.66
68179;BME280;54998;42.656;23.382;2022-10-16T00:23:12;95531.81;;;7.14;77.11
68179;BME280;54998;42.656;23.382;2022-10-16T00:25:38;95532.31;;;7.19;77.77
68179;BME280;54998;42.656;23.382;2022-10-16T00:28:03;95535.59;;;7.21;77.32
68179;BME280;54998;42.656;23.382;2022-10-16T00:30:29;95539.38;;;7.15;76.86
68179;BME280;54998;42.656;23.382;2022-10-16T00:32:55;95534.06;;;7.06;77.21
68179;BME280;54998;42.656;23.382;2022-10-16T00:35:20;95549.47;;;7.04;76.82
68179;BME280;54998;42.656;23.382;2022-10-16T00:37:45;95548.25;;;6.97;76.95
68179;BME280;54998;42.656;23.382;2022-10-16T00:40:11;95550.91;;;6.95;76.83
68179;BME280;54998;42.656;23.382;2022-10-16T00:42:36;95553.75;;;6.91;77.02
68179;BME280;54998;42.656;23.382;2022-10-16T00:45:02;95547.13;;;6.88;77.45
68179;BME280;54998;42.656;23.382;2022-10-16T00:47:37;95541.09;;;6.89;76.99
68179;BME280;54998;42.656;23.382;2022-10-16T00:50:13;95538.84;;;6.85;77.43
68179;BME280;54998;42.656;23.382;2022-10-16T00:52:43;95545.91;;;6.81;77.73
68179;BME280;54998;42.656;23.382;2022-10-16T00:55:10;95542.81;;;6.76;77.49
68179;BME280;54998;42.656;23.382;2022-10-16T00:57:36;95545.75;;;6.70;77.96
68179;BME280;54998;42.656;23.382;2022-10-16T01:00:04;95548.44;;;6.68;77.85
68179;BME280;54998;42.656;23.382;2022-10-16T01:02:30;95542.66;;;6.52;78.32
68179;BME280;54998;42.656;23.382;2022-10-16T01:04:56;95556.44;;;6.49;79.07
68179;BME280;54998;42.656;23.382;2022-10-16T01:10:32;95566.13;;;6.57;80.44
68179;BME280;54998;42.656;23.382;2022-10-16T01:13:06;95563.56;;;6.57;80.54
68179;BME280;54998;42.656;23.382;2022-10-16T01:15:37;95556.56;;;6.61;80.31
68179;BME280;54998;42.656;23.382;2022-10-16T01:20:38;95557.22;;;6.77;79.79
68179;BME280;54998;42.656;23.382;2022-10-16T01:23:16;95555.78;;;6.73;78.41
68179;BME280;54998;42.656;23.382;2022-10-16T01:28:18;95545.63;;;6.58;77.60
68179;BME280;54998;42.656;23.382;2022-10-16T01:30:47;95543.38;;;6.54;77.39
68179;BME280;54998;42.656;23.382;2022-10-16T01:33:20;95544.19;;;6.54;76.80
68179;BME280;54998;42.656;23.382;2022-10-16T01:36:00;95541.84;;;6.51;76.86
68179;BME280;54998;42.656;23.382;2022-10-16T01:38:36;95544.44;;;6.64;75.99
68179;BME280;54998;42.656;23.382;2022-10-16T01:41:13;95546.97;;;6.64;75.43
68179;BME280;54998;42.656;23.382;2022-10-16T01:43:49;95545.25;;;6.65;75.60
68179;BME280;54998;42.656;23.382;2022-10-16T01:46:19;95547.41;;;6.71;74.87
68179;BME280;54998;42.656;23.382;2022-10-16T01:48:47;95548.03;;;6.74;74.89
68179;BME280;54998;42.656;23.382;2022-10-16T01:51:15;95552.84;;;6.79;74.38
68179;BME280;54998;42.656;23.382;2022-10-16T01:53:46;95559.84;;;6.75;74.29
68179;BME280;54998;42.656;23.382;2022-10-16T01:56:13;95553.94;;;6.75;74.17
68179;BME280;54998;42.656;23.382;2022-10-16T01:58:45;95563.84;;;6.79;73.86
68179;BME280;54998;42.656;23.382;2022-10-16T02:01:15;95559.66;;;6.78;73.61
68179;BME280;54998;42.656;23.382;2022-10-16T02:03:42;95555.53;;;6.63;73.94
68179;BME280;54998;42.656;23.382;2022-10-16T02:06:09;95561.56;;;6.62;73.69
68179;BME280;54998;42.656;23.382;2022-10-16T02:08:35;95576.09;;;6.47;73.91
68179;BME280;54998;42.656;23.382;2022-10-16T02:11:02;95570.59;;;6.41;74.19
68179;BME280;54998;42.656;23.382;2022-10-16T02:13:33;95572.41;;;6.38;74.28
68179;BME280;54998;42.656;23.382;2022-10-16T02:15:59;95577.09;;;6.32;74.79
68179;BME280;54998;42.656;23.382;2022-10-16T02:18:26;95571.16;;;6.31;74.84
68179;BME280;54998;42.656;23.382;2022-10-16T02:21:21;95576.44;;;6.28;75.28
68179;BME280;54998;42.656;23.382;2022-10-16T02:29:17;95589.56;;;6.22;75.37
68179;BME280;54998;42.656;23.382;2022-10-16T02:31:50;95588.22;;;6.16;75.18
68179;BME280;54998;42.656;23.382;2022-10-16T02:34:18;95587.59;;;6.13;75.56
68179;BME280;54998;42.656;23.382;2022-10-16T02:36:48;95592.91;;;6.10;75.58
68179;BME280;54998;42.656;23.382;2022-10-16T02:39:16;95594.50;;;6.11;75.45
68179;BME280;54998;42.656;23.382;2022-10-16T02:41:42;95589.78;;;6.05;75.82
68179;BME280;54998;42.656;23.382;2022-10-16T02:44:08;95590.63;;;5.91;76.22
68179;BME280;54998;42.656;23.382;2022-10-16T02:46:33;95594.78;;;5.92;76.16
68179;BME280;54998;42.656;23.382;2022-10-16T02:48:58;95592.81;;;5.83;76.46
68179;BME280;54998;42.656;23.382;2022-10-16T02:51:24;95596.56;;;5.77;76.98
68179;BME280;54998;42.656;23.382;2022-10-16T02:53:49;95597.53;;;5.74;77.27
68179;BME280;54998;42.656;23.382;2022-10-16T02:56:14;95596.00;;;5.72;77.41
68179;BME280;54998;42.656;23.382;2022-10-16T02:58:40;95608.28;;;5.65;77.88
68179;BME280;54998;42.656;23.382;2022-10-16T03:01:05;95602.56;;;5.62;78.58
68179;BME280;54998;42.656;23.382;2022-10-16T03:03:31;95613.28;;;5.52;78.98
68179;BME280;54998;42.656;23.382;2022-10-16T03:05:56;95614.81;;;5.55;79.73
68179;BME280;54998;42.656;23.382;2022-10-16T03:08:22;95613.19;;;5.54;79.91
68179;BME280;54998;42.656;23.382;2022-10-16T03:10:50;95610.38;;;5.44;79.73
68179;BME280;54998;42.656;23.382;2022-10-16T03:13:16;95605.56;;;5.25;80.39
68179;BME280;54998;42.656;23.382;2022-10-16T03:15:41;95613.63;;;5.18;81.11
68179;BME280;54998;42.656;23.382;2022-10-16T03:18:06;95614.63;;;5.15;81.71
68179;BME280;54998;42.656;23.382;2022-10-16T03:20:32;95619.63;;;5.17;81.78
68179;BME280;54998;42.656;23.382;2022-10-16T03:22:58;95615.63;;;5.12;81.98
68179;BME280;54998;42.656;23.382;2022-10-16T03:25:23;95612.88;;;5.15;82.06
68179;BME280;54998;42.656;23.382;2022-10-16T03:27:49;95626.59;;;5.13;82.35
68179;BME280;54998;42.656;23.382;2022-10-16T03:30:14;95624.78;;;5.15;82.52
68179;BME280;54998;42.656;23.382;2022-10-16T03:32:40;95624.06;;;5.13;82.51
68179;BME280;54998;42.656;23.382;2022-10-16T03:35:06;95615.63;;;5.12;82.57
68179;BME280;54998;42.656;23.382;2022-10-16T03:37:31;95623.34;;;5.11;82.64
68179;BME280;54998;42.656;23.382;2022-10-16T03:39:56;95616.16;;;5.18;82.75
68179;BME280;54998;42.656;23.382;2022-10-16T03:42:22;95624.25;;;5.24;81.89
68179;BME280;54998;42.656;23.382;2022-10-16T03:44:47;95622.63;;;5.23;81.25
68179;BME280;54998;42.656;23.382;2022-10-16T03:47:13;95622.97;;;5.17;80.73
68179;BME280;54998;42.656;23.382;2022-10-16T03:49:38;95620.38;;;5.19;80.68
68179;BME280;54998;42.656;23.382;2022-10-16T03:52:04;95618.44;;;5.08;80.97
68179;BME280;54998;42.656;23.382;2022-10-16T03:54:29;95617.50;;;4.94;81.25
68179;BME280;54998;42.656;23.382;2022-10-16T03:56:54;95610.28;;;4.87;81.84
68179;BME280;54998;42.656;23.382;2022-10-16T03:59:22;95609.22;;;4.91;81.84
68179;BME280;54998;42.656;23.382;2022-10-16T04:01:48;95609.94;;;4.93;81.70
68179;BME280;54998;42.656;23.382;2022-10-16T04:04:13;95609.88;;;4.94;81.55
68179;BME280;54998;42.656;23.382;2022-10-16T04:06:38;95609.22;;;4.91;81.24
68179;BME280;54998;42.656;23.382;2022-10-16T04:09:04;95613.47;;;4.90;81.56
68179;BME280;54998;42.656;23.382;2022-10-16T04:11:29;95617.00;;;4.88;82.02
68179;BME280;54998;42.656;23.382;2022-10-16T04:13:55;95616.19;;;4.87;81.97
68179;BME280;54998;42.656;23.382;2022-10-16T04:16:20;95617.00;;;4.88;82.18
68179;BME280;54998;42.656;23.382;2022-10-16T04:18:45;95611.53;;;4.80;82.34
68179;BME280;54998;42.656;23.382;2022-10-16T04:21:11;95617.91;;;4.87;82.44
68179;BME280;54998;42.656;23.382;2022-10-16T04:23:36;95622.28;;;4.85;82.41
68179;BME280;54998;42.656;23.382;2022-10-16T04:26:02;95617.19;;;4.85;82.20
68179;BME280;54998;42.656;23.382;2022-10-16T04:28:28;95614.44;;;4.88;81.82
68179;BME280;54998;42.656;23.382;2022-10-16T04:30:53;95618.84;;;4.86;81.19
68179;BME280;54998;42.656;23.382;2022-10-16T04:33:19;95621.63;;;4.81;81.19
68179;BME280;54998;42.656;23.382;2022-10-16T04:35:44;95620.06;;;4.79;80.63
68179;BME280;54998;42.656;23.382;2022-10-16T04:38:09;95629.59;;;4.75;80.44
68179;BME280;54998;42.656;23.382;2022-10-16T04:40:35;95628.03;;;4.72;80.52
68179;BME280;54998;42.656;23.382;2022-10-16T04:43:03;95626.81;;;4.64;81.28
68179;BME280;54998;42.656;23.382;2022-10-16T04:45:28;95637.47;;;4.70;81.50
68179;BME280;54998;42.656;23.382;2022-10-16T04:47:57;95636.84;;;4.67;82.09
68179;BME280;54998;42.656;23.382;2022-10-16T04:50:22;95641.16;;;4.81;82.58
68179;BME280;54998;42.656;23.382;2022-10-16T04:52:48;95646.88;;;4.84;82.23
68179;BME280;54998;42.656;23.382;2022-10-16T04:55:13;95645.81;;;5.19;82.93
68179;BME280;54998;42.656;23.382;2022-10-16T04:57:38;95651.13;;;5.87;83.64
68179;BME280;54998;42.656;23.382;2022-10-16T05:00:04;95650.41;;;6.55;79.39
68179;BME280;54998;42.656;23.382;2022-10-16T05:02:30;95648.97;;;7.44;74.03
68179;BME280;54998;42.656;23.382;2022-10-16T05:04:55;95650.47;;;8.35;69.66
68179;BME280;54998;42.656;23.382;2022-10-16T05:07:21;95653.72;;;9.22;65.12
68179;BME280;54998;42.656;23.382;2022-10-16T05:09:46;95656.16;;;9.81;62.52
68179;BME280;54998;42.656;23.382;2022-10-16T05:12:12;95661.88;;;10.85;59.86
68179;BME280;54998;42.656;23.382;2022-10-16T05:14:37;95659.56;;;11.35;57.44
68179;BME280;54998;42.656;23.382;2022-10-16T05:17:02;95651.19;;;12.66;53.33
68179;BME280;54998;42.656;23.382;2022-10-16T05:19:28;95657.44;;;13.51;50.28
68179;BME280;54998;42.656;23.382;2022-10-16T05:21:53;95667.53;;;14.01;48.34
68179;BME280;54998;42.656;23.382;2022-10-16T05:24:19;95674.03;;;14.70;46.65
68179;BME280;54998;42.656;23.382;2022-10-16T05:26:44;95673.06;;;14.06;46.65
68179;BME280;54998;42.656;23.382;2022-10-16T05:29:09;95665.59;;;14.68;46.12
68179;BME280;54998;42.656;23.382;2022-10-16T05:31:35;95658.16;;;15.63;43.54
68179;BME280;54998;42.656;23.382;2022-10-16T05:34:01;95665.53;;;16.02;41.88
68179;BME280;54998;42.656;23.382;2022-10-16T05:36:27;95661.19;;;15.76;42.78
68179;BME280;54998;42.656;23.382;2022-10-16T05:38:53;95657.44;;;16.31;40.99
68179;BME280;54998;42.656;23.382;2022-10-16T05:41:18;95662.19;;;16.44;41.37
68179;BME280;54998;42.656;23.382;2022-10-16T05:43:48;95677.28;;;14.90;44.98
68179;BME280;54998;42.656;23.382;2022-10-16T05:46:14;95672.50;;;13.65;47.01
68179;BME280;54998;42.656;23.382;2022-10-16T05:48:39;95672.38;;;13.57;47.62
68179;BME280;54998;42.656;23.382;2022-10-16T05:51:07;95678.94;;;14.64;45.43
68179;BME280;54998;42.656;23.382;2022-10-16T05:53:34;95677.09;;;14.46;45.93
68179;BME280;54998;42.656;23.382;2022-10-16T05:56:00;95685.84;;;14.91;44.82
68179;BME280;54998;42.656;23.382;2022-10-16T05:58:33;95685.13;;;14.15;46.92
68179;BME280;54998;42.656;23.382;2022-10-16T06:01:04;95687.84;;;15.33;44.46
68179;BME280;54998;42.656;23.382;2022-10-16T06:03:30;95693.13;;;15.67;43.90
68179;BME280;54998;42.656;23.382;2022-10-16T06:05:56;95690.72;;;17.03;40.67
68179;BME280;54998;42.656;23.382;2022-10-16T06:08:22;95694.25;;;18.17;38.72
68179;BME280;54998;42.656;23.382;2022-10-16T06:10:49;95699.31;;;18.97;37.00
68179;BME280;54998;42.656;23.382;2022-10-16T06:13:14;95688.50;;;20.97;33.47
68179;BME280;54998;42.656;23.382;2022-10-16T06:15:41;95697.44;;;21.95;31.62
68179;BME280;54998;42.656;23.382;2022-10-16T06:18:08;95700.25;;;21.93;31.63
68179;BME280;54998;42.656;23.382;2022-10-16T06:20:34;95703.34;;;23.35;29.20
68179;BME280;54998;42.656;23.382;2022-10-16T06:22:59;95702.78;;;24.06;27.92
68179;BME280;54998;42.656;23.382;2022-10-16T06:25:25;95704.00;;;23.97;28.23
68179;BME280;54998;42.656;23.382;2022-10-16T06:27:50;95712.66;;;23.51;28.44
68179;BME280;54998;42.656;23.382;2022-10-16T06:30:15;95712.22;;;24.34;27.25
68179;BME280;54998;42.656;23.382;2022-10-16T06:32:41;95714.38;;;24.70;26.63
68179;BME280;54998;42.656;23.382;2022-10-16T06:35:06;95709.31;;;24.75;26.43
68179;BME280;54998;42.656;23.382;2022-10-16T06:37:32;95712.84;;;24.09;27.51
68179;BME280;54998;42.656;23.382;2022-10-16T06:39:57;95717.91;;;23.64;27.83
68179;BME280;54998;42.656;23.382;2022-10-16T06:42:23;95726.31;;;22.85;29.16
68179;BME280;54998;42.656;23.382;2022-10-16T06:44:48;95721.84;;;22.30;29.88
68179;BME280;54998;42.656;23.382;2022-10-16T06:47:13;95721.19;;;22.63;29.55
68179;BME280;54998;42.656;23.382;2022-10-16T06:49:39;95726.16;;;22.93;29.48
68179;BME280;54998;42.656;23.382;2022-10-16T06:52:04;95729.22;;;23.85;27.92
68179;BME280;54998;42.656;23.382;2022-10-16T06:54:30;95729.09;;;23.25;28.80
68179;BME280;54998;42.656;23.382;2022-10-16T06:56:55;95736.56;;;24.81;26.85
68179;BME280;54998;42.656;23.382;2022-10-16T06:59:21;95736.56;;;23.28;28.58
68179;BME280;54998;42.656;23.382;2022-10-16T07:01:47;95738.41;;;23.34;28.87
68179;BME280;54998;42.656;23.382;2022-10-16T07:04:12;95739.22;;;25.19;26.48
68179;BME280;54998;42.656;23.382;2022-10-16T07:06:38;95740.16;;;25.95;25.15
68179;BME280;54998;42.656;23.382;2022-10-16T07:09:06;95740.41;;;25.94;25.16
68179;BME280;54998;42.656;23.382;2022-10-16T07:11:32;95737.78;;;24.65;26.53
68179;BME280;54998;42.656;23.382;2022-10-16T07:13:57;95746.00;;;23.22;28.61
68179;BME280;54998;42.656;23.382;2022-10-16T07:16:25;95740.06;;;24.28;27.51
68179;BME280;54998;42.656;23.382;2022-10-16T07:18:53;95751.53;;;23.47;28.42
68179;BME280;54998;42.656;23.382;2022-10-16T07:21:22;95747.34;;;23.99;28.27
68179;BME280;54998;42.656;23.382;2022-10-16T07:23:52;95745.13;;;23.83;28.04
68179;BME280;54998;42.656;23.382;2022-10-16T07:26:18;95749.56;;;25.78;25.61
68179;BME280;54998;42.656;23.382;2022-10-16T07:28:44;95749.94;;;25.88;25.37
68179;BME280;54998;42.656;23.382;2022-10-16T07:31:12;95752.22;;;24.16;27.66
68179;BME280;54998;42.656;23.382;2022-10-16T07:33:39;95750.31;;;25.60;25.59
68179;BME280;54998;42.656;23.382;2022-10-16T07:36:05;95743.44;;;26.16;24.51
68179;BME280;54998;42.656;23.382;2022-10-16T07:38:31;95751.06;;;24.84;26.30
68179;BME280;54998;42.656;23.382;2022-10-16T07:40:58;95753.47;;;25.37;26.13
68179;BME280;54998;42.656;23.382;2022-10-16T07:43:24;95754.00;;;26.59;25.06
68179;BME280;54998;42.656;23.382;2022-10-16T07:45:50;95762.09;;;27.74;22.74
68179;BME280;54998;42.656;23.382;2022-10-16T07:48:17;95754.16;;;27.62;22.96
68179;BME280;54998;42.656;23.382;2022-10-16T07:50:43;95754.78;;;25.85;24.91
68179;BME280;54998;42.656;23.382;2022-10-16T07:53:09;95760.53;;;27.05;23.70
68179;BME280;54998;42.656;23.382;2022-10-16T07:55:35;95747.06;;;29.16;21.69
68179;BME280;54998;42.656;23.382;2022-10-16T07:58:00;95756.44;;;27.58;22.93
68179;BME280;54998;42.656;23.382;2022-10-16T08:00:25;95756.88;;;27.25;23.55
68179;BME280;54998;42.656;23.382;2022-10-16T08:02:51;95759.97;;;27.22;24.21
68179;BME280;54998;42.656;23.382;2022-10-16T08:05:16;95759.16;;;27.52;23.88
68179;BME280;54998;42.656;23.382;2022-10-16T08:07:42;95759.25;;;27.45;23.94
68179;BME280;54998;42.656;23.382;2022-10-16T08:10:15;95761.66;;;29.06;21.91
68179;BME280;54998;42.656;23.382;2022-10-16T08:12:41;95757.63;;;29.73;21.33
68179;BME280;54998;42.656;23.382;2022-10-16T08:15:06;95755.91;;;29.96;20.85
68179;BME280;54998;42.656;23.382;2022-10-16T08:17:32;95756.56;;;28.76;21.56
68179;BME280;54998;42.656;23.382;2022-10-16T08:19:57;95757.66;;;27.44;23.11
68179;BME280;54998;42.656;23.382;2022-10-16T08:22:22;95765.25;;;23.63;27.98
68179;BME280;54998;42.656;23.382;2022-10-16T08:24:48;95742.53;;;24.95;26.49
68179;BME280;54998;42.656;23.382;2022-10-16T08:27:13;95750.63;;;26.02;24.73
68179;BME280;54998;42.656;23.382;2022-10-16T08:29:39;95751.59;;;25.76;25.33
68179;BME280;54998;42.656;23.382;2022-10-16T08:32:04;95747.09;;;25.58;25.76
68179;BME280;54998;42.656;23.382;2022-10-16T08:34:30;95745.63;;;26.44;24.71
68179;BME280;54998;42.656;23.382;2022-10-16T08:36:55;95744.28;;;28.23;22.42
68179;BME280;54998;42.656;23.382;2022-10-16T08:39:20;95736.00;;;29.19;21.51
68179;BME280;54998;42.656;23.382;2022-10-16T08:47:20;95743.69;;;27.85;21.76
68179;BME280;54998;42.656;23.382;2022-10-16T08:49:59;95753.59;;;27.30;22.25
68179;BME280;54998;42.656;23.382;2022-10-16T08:52:29;95754.75;;;26.41;22.36
68179;BME280;54998;42.656;23.382;2022-10-16T08:54:56;95755.81;;;25.83;24.08
68179;BME280;54998;42.656;23.382;2022-10-16T08:57:22;95749.28;;;24.77;25.82
68179;BME280;54998;42.656;23.382;2022-10-16T08:59:49;95756.72;;;26.02;24.38
68179;BME280;54998;42.656;23.382;2022-10-16T09:02:27;95756.00;;;27.73;21.94
68179;BME280;54998;42.656;23.382;2022-10-16T09:08:43;95748.31;;;25.17;24.14
68179;BME280;54998;42.656;23.382;2022-10-16T09:11:22;95745.88;;;25.92;23.24
68179;BME280;54998;42.656;23.382;2022-10-16T09:14:07;95740.63;;;26.61;22.37
68179;BME280;54998;42.656;23.382;2022-10-16T09:16:41;95742.91;;;28.67;20.62
68179;BME280;54998;42.656;23.382;2022-10-16T09:19:29;95759.88;;;28.83;19.88
68179;BME280;54998;42.656;23.382;2022-10-16T09:21:56;95739.72;;;26.23;22.52
68179;BME280;54998;42.656;23.382;2022-10-16T09:24:25;95751.44;;;27.38;21.49
68179;BME280;54998;42.656;23.382;2022-10-16T09:26:51;95743.53;;;30.01;18.88
68179;BME280;54998;42.656;23.382;2022-10-16T09:29:17;95748.56;;;29.40;18.73
68179;BME280;54998;42.656;23.382;2022-10-16T09:31:45;95745.56;;;27.66;20.60
68179;BME280;54998;42.656;23.382;2022-10-16T09:34:21;95744.41;;;26.21;21.72
68179;BME280;54998;42.656;23.382;2022-10-16T09:36:51;95739.97;;;25.33;22.49
68179;BME280;54998;42.656;23.382;2022-10-16T09:39:16;95735.69;;;26.21;21.67
68179;BME280;54998;42.656;23.382;2022-10-16T09:41:42;95732.28;;;29.32;18.68
68179;BME280;54998;42.656;23.382;2022-10-16T09:46:49;95724.13;;;28.93;19.24
68179;BME280;54998;42.656;23.382;2022-10-16T09:49:26;95723.34;;;27.74;20.20
68179;BME280;54998;42.656;23.382;2022-10-16T09:52:10;95725.59;;;28.60;19.18
68179;BME280;54998;42.656;23.382;2022-10-16T09:54:36;95730.53;;;27.25;20.38
68179;BME280;54998;42.656;23.382;2022-10-16T09:57:06;95730.50;;;25.89;21.60
68179;BME280;54998;42.656;23.382;2022-10-16T09:59:31;95718.94;;;25.65;22.07
68179;BME280;54998;42.656;23.382;2022-10-16T10:01:56;95721.34;;;27.58;20.65
68179;BME280;54998;42.656;23.382;2022-10-16T10:04:38;95723.47;;;25.51;22.28
68179;BME280;54998;42.656;23.382;2022-10-16T10:07:04;95714.56;;;26.71;21.15
68179;BME280;54998;42.656;23.382;2022-10-16T10:09:34;95716.06;;;28.12;19.36
68179;BME280;54998;42.656;23.382;2022-10-16T10:12:03;95710.97;;;27.75;19.84
68179;BME280;54998;42.656;23.382;2022-10-16T10:14:43;95710.56;;;28.13;19.86
68179;BME280;54998;42.656;23.382;2022-10-16T10:17:13;95701.28;;;29.89;17.75
68179;BME280;54998;42.656;23.382;2022-10-16T10:19:44;95701.50;;;27.43;19.80
68179;BME280;54998;42.656;23.382;2022-10-16T10:25:00;95694.38;;;30.05;17.37
68179;BME280;54998;42.656;23.382;2022-10-16T10:27:37;95699.34;;;31.51;16.18
68179;BME280;54998;42.656;23.382;2022-10-16T10:35:28;95686.97;;;29.40;18.33
68179;BME280;54998;42.656;23.382;2022-10-16T10:38:05;95689.19;;;30.71;16.92
68179;BME280;54998;42.656;23.382;2022-10-16T10:43:30;95687.34;;;30.94;16.51
68179;BME280;54998;42.656;23.382;2022-10-16T10:46:11;95677.84;;;32.17;15.16
68179;BME280;54998;42.656;23.382;2022-10-16T10:51:13;95679.84;;;31.67;14.78
68179;BME280;54998;42.656;23.382;2022-10-16T10:54:16;95674.88;;;32.08;15.00
68179;BME280;54998;42.656;23.382;2022-10-16T10:56:58;95668.63;;;30.01;16.42
68179;BME280;54998;42.656;23.382;2022-10-16T11:02:31;95666.81;;;30.84;15.36
68179;BME280;54998;42.656;23.382;2022-10-16T11:07:49;95662.41;;;28.70;16.11
68179;BME280;54998;42.656;23.382;2022-10-16T11:10:21;95654.50;;;30.12;15.23
68179;BME280;54998;42.656;23.382;2022-10-16T11:12:52;95657.50;;;28.91;16.96
68179;BME280;54998;42.656;23.382;2022-10-16T11:15:37;95657.31;;;26.97;18.18
68179;BME280;54998;42.656;23.382;2022-10-16T11:20:37;95655.88;;;26.09;19.67
68179;BME280;54998;42.656;23.382;2022-10-16T11:23:25;95656.06;;;26.51;19.76
68179;BME280;54998;42.656;23.382;2022-10-16T11:25:54;95650.78;;;26.69;19.85
68179;BME280;54998;42.656;23.382;2022-10-16T11:34:19;95644.38;;;25.59;19.61
68179;BME280;54998;42.656;23.382;2022-10-16T11:39:29;95649.28;;;24.34;21.00
68179;BME280;54998;42.656;23.382;2022-10-16T11:42:07;95649.38;;;25.04;21.43
68179;BME280;54998;42.656;23.382;2022-10-16T11:53:23;95653.88;;;24.52;22.75
68179;BME280;54998;42.656;23.382;2022-10-16T11:55:51;95653.81;;;23.40;23.71
68179;BME280;54998;42.656;23.382;2022-10-16T11:58:41;95654.56;;;22.52;24.73
68179;BME280;54998;42.656;23.382;2022-10-16T12:06:32;95656.13;;;22.12;25.09
68179;BME280;54998;42.656;23.382;2022-10-16T12:09:00;95651.75;;;21.13;26.33
68179;BME280;54998;42.656;23.382;2022-10-16T12:13:52;95655.66;;;19.54;29.30
68179;BME280;54998;42.656;23.382;2022-10-16T12:16:28;95645.91;;;19.33;29.33
68179;BME280;54998;42.656;23.382;2022-10-16T12:19:10;95650.16;;;19.11;30.50
68179;BME280;54998;42.656;23.382;2022-10-16T12:21:37;95641.59;;;19.02;30.01
68179;BME280;54998;42.656;23.382;2022-10-16T12:24:03;95649.84;;;18.82;30.00
68179;BME280;54998;42.656;23.382;2022-10-16T12:26:37;95648.09;;;18.66;30.70
68179;BME280;54998;42.656;23.382;2022-10-16T12:31:53;95648.13;;;18.58;30.21
68179;BME280;54998;42.656;23.382;2022-10-16T12:34:28;95656.56;;;18.29;31.38
68179;BME280;54998;42.656;23.382;2022-10-16T12:36:55;95643.94;;;18.57;30.89
68179;BME280;54998;42.656;23.382;2022-10-16T12:39:25;95646.59;;;20.02;29.35
68179;BME280;54998;42.656;23.382;2022-10-16T12:42:20;95644.19;;;21.68;27.12
68179;BME280;54998;42.656;23.382;2022-10-16T12:44:46;95644.91;;;23.21;25.28
68179;BME280;54998;42.656;23.382;2022-10-16T12:47:36;95644.31;;;23.39;25.17
68179;BME280;54998;42.656;23.382;2022-10-16T12:50:03;95642.72;;;23.51;25.35
68179;BME280;54998;42.656;23.382;2022-10-16T12:52:37;95640.09;;;23.31;25.31
68179;BME280;54998;42.656;23.382;2022-10-16T12:55:05;95651.66;;;22.34;25.69
68179;BME280;54998;42.656;23.382;2022-10-16T13:06:02;95657.03;;;23.55;22.68
68179;BME280;54998;42.656;23.382;2022-10-16T13:14:14;95659.22;;;23.19;24.19
68179;BME280;54998;42.656;23.382;2022-10-16T13:24:55;95655.25;;;19.65;28.61
68179;BME280;54998;42.656;23.382;2022-10-16T13:30:17;95658.19;;;18.70;30.35
68179;BME280;54998;42.656;23.382;2022-10-16T13:32:45;95664.34;;;18.29;31.51
68179;BME280;54998;42.656;23.382;2022-10-16T13:35:24;95658.34;;;18.29;31.27
68179;BME280;54998;42.656;23.382;2022-10-16T13:37:50;95662.25;;;18.33;30.71
68179;BME280;54998;42.656;23.382;2022-10-16T13:40:22;95660.97;;;18.20;31.50
68179;BME280;54998;42.656;23.382;2022-10-16T13:42:48;95668.72;;;18.37;31.10
68179;BME280;54998;42.656;23.382;2022-10-16T13:45:18;95664.16;;;18.39;31.39
68179;BME280;54998;42.656;23.382;2022-10-16T13:47:44;95663.97;;;18.40;31.31
68179;BME280;54998;42.656;23.382;2022-10-16T13:50:12;95665.78;;;18.40;31.65
68179;BME280;54998;42.656;23.382;2022-10-16T13:52:38;95669.97;;;18.49;31.78
68179;BME280;54998;42.656;23.382;2022-10-16T13:55:11;95663.03;;;18.33;32.50
68179;BME280;54998;42.656;23.382;2022-10-16T13:57:36;95672.94;;;18.30;31.95
68179;BME280;54998;42.656;23.382;2022-10-16T14:00:02;95674.31;;;18.17;31.26
68179;BME280;54998;42.656;23.382;2022-10-16T14:02:33;95673.84;;;17.97;31.75
68179;BME280;54998;42.656;23.382;2022-10-16T14:05:01;95680.69;;;17.82;32.05
68179;BME280;54998;42.656;23.382;2022-10-16T14:07:31;95674.81;;;17.80;32.22
68179;BME280;54998;42.656;23.382;2022-10-16T14:10:06;95673.22;;;17.71;33.50
68179;BME280;54998;42.656;23.382;2022-10-16T14:12:41;95672.44;;;17.54;32.63
68179;BME280;54998;42.656;23.382;2022-10-16T14:15:16;95677.28;;;17.32;32.48
68179;BME280;54998;42.656;23.382;2022-10-16T14:17:43;95681.50;;;17.25;31.87
68179;BME280;54998;42.656;23.382;2022-10-16T14:20:15;95682.66;;;17.22;31.79
68179;BME280;54998;42.656;23.382;2022-10-16T14:22:42;95685.56;;;17.11;32.40
68179;BME280;54998;42.656;23.382;2022-10-16T14:27:56;95695.09;;;16.94;32.55
68179;BME280;54998;42.656;23.382;2022-10-16T14:30:23;95698.06;;;16.73;33.01
68179;BME280;54998;42.656;23.382;2022-10-16T14:32:58;95692.69;;;16.67;33.00
68179;BME280;54998;42.656;23.382;2022-10-16T14:37:55;95690.41;;;16.55;33.42
68179;BME280;54998;42.656;23.382;2022-10-16T14:40:29;95699.41;;;16.43;33.62
68179;BME280;54998;42.656;23.382;2022-10-16T14:42:55;95686.31;;;16.45;33.82
68179;BME280;54998;42.656;23.382;2022-10-16T14:45:24;95692.03;;;16.22;34.26